sensor_id;sensor_type;location;lat;lon;timestamp;pressure;altitude;pressure_sealevel;temperature;humidity
42633;BME280;28261;53.304;-6.284;2024-03-22T00:00:27;101373.72;;;9.15;100.00
42633;BME280;28261;53.304;-6.284;2024-03-22T00:02:29;101379.84;;;9.15;100.00
42633;BME280;28261;53.304;-6.284;2024-03-22T00:04:31;101370.16;;;9.16;100.00
42633;BME280;28261;53.304;-6.284;2024-03-22T00:06:33;101374.56;;;9.15;100.00
42633;BME280;28261;53.304;-6.284;2024-03-22T00:08:36;101377.19;;;9.15;100.00
42633;BME280;28261;53.304;-6.284;2024-03-22T00:10:37;101375.50;;;9.14;100.00
42633;BME280;28261;53.304;-6.284;2024-03-22T00:12:41;101370.28;;;9.13;100.00
42633;BME280;28261;53.304;-6.284;2024-03-22T00:14:43;101371.16;;;9.13;100.00
42633;BME280;28261;53.304;-6.284;2024-03-22T00:16:46;101365.88;;;9.13;100.00
42633;BME280;28261;53.304;-6.284;2024-03-22T00:18:47;101379.09;;;9.13;100.00
42633;BME280;28261;53.304;-6.284;2024-03-22T00:20:50;101370.34;;;9.11;100.00
42633;BME280;28261;53.304;-6.284;2024-03-22T00:22:51;101376.53;;;9.12;100.00
42633;BME280;28261;53.304;-6.284;2024-03-22T00:24:54;101377.53;;;9.09;100.00
42633;BME280;28261;53.304;-6.284;2024-03-22T00:26:55;101385.47;;;9.09;100.00
42633;BME280;28261;53.304;-6.284;2024-03-22T00:29:00;101385.47;;;9.09;100.00
42633;BME280;28261;53.304;-6.284;2024-03-22T00:31:01;101389.03;;;9.08;100.00
42633;BME280;28261;53.304;-6.284;2024-03-22T00:33:03;101381.19;;;9.07;100.00
42633;BME280;28261;53.304;-6.284;2024-03-22T00:35:06;101382.03;;;9.07;100.00
42633;BME280;28261;53.304;-6.284;2024-03-22T00:37:08;101380.34;;;9.06;100.00
42633;BME280;28261;53.304;-6.284;2024-03-22T00:39:10;101389.97;;;9.07;100.00
42633;BME280;28261;53.304;-6.284;2024-03-22T00:41:12;101386.56;;;9.05;100.00
42633;BME280;28261;53.304;-6.284;2024-03-22T00:43:14;101384.91;;;9.03;100.00
42633;BME280;28261;53.304;-6.284;2024-03-22T00:45:17;101384.13;;;9.01;100.00
42633;BME280;28261;53.304;-6.284;2024-03-22T00:47:20;101379.88;;;8.98;100.00
42633;BME280;28261;53.304;-6.284;2024-03-22T00:49:22;101374.63;;;8.96;100.00
42633;BME280;28261;53.304;-6.284;2024-03-22T00:51:25;101385.28;;;8.95;100.00
42633;BME280;28261;53.304;-6.284;2024-03-22T00:53:27;101383.72;;;8.91;100.00
42633;BME280;28261;53.304;-6.284;2024-03-22T00:55:29;101381.16;;;8.89;100.00
42633;BME280;28261;53.304;-6.284;2024-03-22T00:57:31;101375.09;;;8.87;100.00
42633;BME280;28261;53.304;-6.284;2024-03-22T00:59:33;101379.69;;;8.84;100.00
42633;BME280;28261;53.304;-6.284;2024-03-22T01:01:36;101392.09;;;8.81;100.00
42633;BME280;28261;53.304;-6.284;2024-03-22T01:03:39;101396.53;;;8.81;100.00
42633;BME280;28261;53.304;-6.284;2024-03-22T01:05:40;101393.13;;;8.79;100.00
42633;BME280;28261;53.304;-6.284;2024-03-22T01:07:43;101397.72;;;8.75;100.00
42633;BME280;28261;53.304;-6.284;2024-03-22T01:09:45;101392.56;;;8.72;100.00
42633;BME280;28261;53.304;-6.284;2024-03-22T01:11:48;101389.13;;;8.70;100.00
42633;BME280;28261;53.304;-6.284;2024-03-22T01:13:49;101392.78;;;8.68;100.00
42633;BME280;28261;53.304;-6.284;2024-03-22T01:15:52;101388.50;;;8.65;100.00
42633;BME280;28261;53.304;-6.284;2024-03-22T01:17:55;101390.38;;;8.63;100.00
42633;BME280;28261;53.304;-6.284;2024-03-22T01:19:58;101397.50;;;8.61;100.00
42633;BME280;28261;53.304;-6.284;2024-03-22T01:21:59;101398.47;;;8.60;100.00
42633;BME280;28261;53.304;-6.284;2024-03-22T01:24:02;101403.88;;;8.57;100.00
42633;BME280;28261;53.304;-6.284;2024-03-22T01:26:04;101391.59;;;8.56;100.00
42633;BME280;28261;53.304;-6.284;2024-03-22T01:28:06;101384.59;;;8.55;100.00
42633;BME280;28261;53.304;-6.284;2024-03-22T01:30:09;101390.88;;;8.52;100.00
42633;BME280;28261;53.304;-6.284;2024-03-22T01:32:12;101390.03;;;8.52;100.00
42633;BME280;28261;53.304;-6.284;2024-03-22T01:34:15;101386.59;;;8.50;100.00
42633;BME280;28261;53.304;-6.284;2024-03-22T01:36:18;101394.53;;;8.50;100.00
42633;BME280;28261;53.304;-6.284;2024-03-22T01:38:19;101388.47;;;8.48;100.00
42633;BME280;28261;53.304;-6.284;2024-03-22T01:40:22;101399.97;;;8.46;100.00
42633;BME280;28261;53.304;-6.284;2024-03-22T01:42:23;101397.44;;;8.43;100.00
42633;BME280;28261;53.304;-6.284;2024-03-22T01:44:27;101388.63;;;8.43;100.00
42633;BME280;28261;53.304;-6.284;2024-03-22T01:46:29;101387.88;;;8.41;100.00
42633;BME280;28261;53.304;-6.284;2024-03-22T01:48:32;101394.00;;;8.41;100.00
42633;BME280;28261;53.304;-6.284;2024-03-22T01:50:35;101386.22;;;8.38;100.00
42633;BME280;28261;53.304;-6.284;2024-03-22T01:52:38;101393.28;;;8.38;100.00
42633;BME280;28261;53.304;-6.284;2024-03-22T01:54:41;101393.34;;;8.36;100.00
42633;BME280;28261;53.304;-6.284;2024-03-22T01:56:43;101389.06;;;8.34;100.00
42633;BME280;28261;53.304;-6.284;2024-03-22T01:58:45;101389.16;;;8.32;100.00
42633;BME280;28261;53.304;-6.284;2024-03-22T02:00:49;101391.78;;;8.32;100.00
42633;BME280;28261;53.304;-6.284;2024-03-22T02:02:50;101382.16;;;8.31;100.00
42633;BME280;28261;53.304;-6.284;2024-03-22T02:04:53;101384.00;;;8.29;100.00
42633;BME280;28261;53.304;-6.284;2024-03-22T02:06:56;101390.94;;;8.32;100.00
42633;BME280;28261;53.304;-6.284;2024-03-22T02:08:58;101377.97;;;8.27;100.00
42633;BME280;28261;53.304;-6.284;2024-03-22T02:11:00;101379.88;;;8.23;100.00
42633;BME280;28261;53.304;-6.284;2024-03-22T02:13:03;101379.88;;;8.23;100.00
42633;BME280;28261;53.304;-6.284;2024-03-22T02:15:06;101383.44;;;8.22;100.00
42633;BME280;28261;53.304;-6.284;2024-03-22T02:17:09;101384.44;;;8.20;100.00
42633;BME280;28261;53.304;-6.284;2024-03-22T02:19:10;101383.59;;;8.19;100.00
42633;BME280;28261;53.304;-6.284;2024-03-22T02:21:12;101391.66;;;8.16;100.00
42633;BME280;28261;53.304;-6.284;2024-03-22T02:23:16;101387.31;;;8.15;100.00
42633;BME280;28261;53.304;-6.284;2024-03-22T02:25:19;101385.59;;;8.14;100.00
42633;BME280;28261;53.304;-6.284;2024-03-22T02:27:22;101379.53;;;8.12;100.00
42633;BME280;28261;53.304;-6.284;2024-03-22T02:29:23;101387.50;;;8.10;100.00
42633;BME280;28261;53.304;-6.284;2024-03-22T02:31:26;101372.59;;;8.09;100.00
42633;BME280;28261;53.304;-6.284;2024-03-22T02:33:28;101370.97;;;8.07;100.00
42633;BME280;28261;53.304;-6.284;2024-03-22T02:35:30;101376.31;;;8.05;100.00
42633;BME280;28261;53.304;-6.284;2024-03-22T02:37:32;101378.16;;;8.03;100.00
42633;BME280;28261;53.304;-6.284;2024-03-22T02:39:34;101380.03;;;8.01;100.00
42633;BME280;28261;53.304;-6.284;2024-03-22T02:41:37;101374.84;;;7.98;100.00
42633;BME280;28261;53.304;-6.284;2024-03-22T02:43:40;101371.44;;;7.96;100.00
42633;BME280;28261;53.304;-6.284;2024-03-22T02:45:42;101374.16;;;7.94;100.00
42633;BME280;28261;53.304;-6.284;2024-03-22T02:47:43;101370.72;;;7.92;100.00
42633;BME280;28261;53.304;-6.284;2024-03-22T02:49:46;101372.59;;;7.90;100.00
42633;BME280;28261;53.304;-6.284;2024-03-22T02:51:47;101370.06;;;7.87;100.00
42633;BME280;28261;53.304;-6.284;2024-03-22T02:53:50;101368.38;;;7.86;100.00
42633;BME280;28261;53.304;-6.284;2024-03-22T02:55:51;101367.56;;;7.84;100.00
42633;BME280;28261;53.304;-6.284;2024-03-22T02:57:55;101375.56;;;7.83;100.00
42633;BME280;28261;53.304;-6.284;2024-03-22T03:00:00;101371.28;;;7.80;100.00
42633;BME280;28261;53.304;-6.284;2024-03-22T03:02:04;101379.28;;;7.78;100.00
42633;BME280;28261;53.304;-6.284;2024-03-22T03:04:06;101375.84;;;7.76;100.00
42633;BME280;28261;53.304;-6.284;2024-03-22T03:06:08;101385.53;;;7.76;100.00
42633;BME280;28261;53.304;-6.284;2024-03-22T03:08:10;101378.59;;;7.73;100.00
42633;BME280;28261;53.304;-6.284;2024-03-22T03:10:13;101380.41;;;7.73;100.00
42633;BME280;28261;53.304;-6.284;2024-03-22T03:12:14;101383.03;;;7.73;100.00
42633;BME280;28261;53.304;-6.284;2024-03-22T03:14:18;101374.28;;;7.72;100.00
42633;BME280;28261;53.304;-6.284;2024-03-22T03:16:20;101375.13;;;7.73;100.00
42633;BME280;28261;53.304;-6.284;2024-03-22T03:18:22;101387.53;;;7.71;100.00
42633;BME280;28261;53.304;-6.284;2024-03-22T03:20:25;101391.94;;;7.70;100.00
42633;BME280;28261;53.304;-6.284;2024-03-22T03:22:27;101393.81;;;7.68;100.00
42633;BME280;28261;53.304;-6.284;2024-03-22T03:24:29;101385.09;;;7.66;100.00
42633;BME280;28261;53.304;-6.284;2024-03-22T03:26:32;101379.97;;;7.63;100.00
42633;BME280;28261;53.304;-6.284;2024-03-22T03:28:33;101379.16;;;7.61;100.00
42633;BME280;28261;53.304;-6.284;2024-03-22T03:30:37;101382.78;;;7.58;100.00
42633;BME280;28261;53.304;-6.284;2024-03-22T03:32:39;101378.50;;;7.56;100.00
42633;BME280;28261;53.304;-6.284;2024-03-22T03:34:41;101381.22;;;7.54;100.00
42633;BME280;28261;53.304;-6.284;2024-03-22T03:36:43;101384.78;;;7.53;100.00
42633;BME280;28261;53.304;-6.284;2024-03-22T03:38:44;101390.09;;;7.52;100.00
42633;BME280;28261;53.304;-6.284;2024-03-22T03:40:47;101379.69;;;7.49;100.00
42633;BME280;28261;53.304;-6.284;2024-03-22T03:42:48;101384.13;;;7.48;100.00
42633;BME280;28261;53.304;-6.284;2024-03-22T03:44:51;101386.91;;;7.45;100.00
42633;BME280;28261;53.304;-6.284;2024-03-22T03:46:54;101379.91;;;7.44;100.00
42633;BME280;28261;53.304;-6.284;2024-03-22T03:48:57;101387.91;;;7.42;100.00
42633;BME280;28261;53.304;-6.284;2024-03-22T03:50:59;101387.09;;;7.40;100.00
42633;BME280;28261;53.304;-6.284;2024-03-22T03:53:04;101389.72;;;7.40;100.00
42633;BME280;28261;53.304;-6.284;2024-03-22T03:55:06;101388.00;;;7.39;100.00
42633;BME280;28261;53.304;-6.284;2024-03-22T03:57:08;101393.34;;;7.38;100.00
42633;BME280;28261;53.304;-6.284;2024-03-22T03:59:10;101391.59;;;7.38;100.00
42633;BME280;28261;53.304;-6.284;2024-03-22T04:01:12;101390.78;;;7.36;100.00
42633;BME280;28261;53.304;-6.284;2024-03-22T04:03:15;101384.66;;;7.36;100.00
42633;BME280;28261;53.304;-6.284;2024-03-22T04:05:18;101398.69;;;7.36;100.00
42633;BME280;28261;53.304;-6.284;2024-03-22T04:07:20;101387.28;;;7.36;100.00
42633;BME280;28261;53.304;-6.284;2024-03-22T04:09:23;101390.00;;;7.34;100.00
42633;BME280;28261;53.304;-6.284;2024-03-22T04:11:24;101385.72;;;7.32;100.00
42633;BME280;28261;53.304;-6.284;2024-03-22T04:13:27;101394.59;;;7.29;100.00
42633;BME280;28261;53.304;-6.284;2024-03-22T04:15:29;101391.97;;;7.29;100.00
42633;BME280;28261;53.304;-6.284;2024-03-22T04:17:31;101399.03;;;7.28;100.00
42633;BME280;28261;53.304;-6.284;2024-03-22T04:19:34;101399.06;;;7.27;100.00
42633;BME280;28261;53.304;-6.284;2024-03-22T04:21:37;101400.94;;;7.25;100.00
42633;BME280;28261;53.304;-6.284;2024-03-22T04:23:38;101407.13;;;7.24;100.00
42633;BME280;28261;53.304;-6.284;2024-03-22T04:25:41;101409.75;;;7.24;100.00
42633;BME280;28261;53.304;-6.284;2024-03-22T04:27:42;101401.06;;;7.22;100.00
42633;BME280;28261;53.304;-6.284;2024-03-22T04:29:47;101398.44;;;7.22;100.00
42633;BME280;28261;53.304;-6.284;2024-03-22T04:31:48;101405.47;;;7.21;100.00
42633;BME280;28261;53.304;-6.284;2024-03-22T04:33:51;101395.00;;;7.20;100.00
42633;BME280;28261;53.304;-6.284;2024-03-22T04:35:54;101402.06;;;7.19;100.00
42633;BME280;28261;53.304;-6.284;2024-03-22T04:37:57;101403.03;;;7.17;100.00
42633;BME280;28261;53.304;-6.284;2024-03-22T04:40:00;101405.75;;;7.15;100.00
42633;BME280;28261;53.304;-6.284;2024-03-22T04:42:01;101405.84;;;7.12;100.00
42633;BME280;28261;53.304;-6.284;2024-03-22T04:44:05;101406.78;;;7.11;100.00
42633;BME280;28261;53.304;-6.284;2024-03-22T04:46:06;101412.13;;;7.09;100.00
42633;BME280;28261;53.304;-6.284;2024-03-22T04:48:09;101404.34;;;7.06;100.00
42633;BME280;28261;53.304;-6.284;2024-03-22T04:50:10;101413.28;;;7.02;100.00
42633;BME280;28261;53.304;-6.284;2024-03-22T04:52:16;101418.63;;;7.01;100.00
42633;BME280;28261;53.304;-6.284;2024-03-22T04:54:18;101425.75;;;6.99;100.00
42633;BME280;28261;53.304;-6.284;2024-03-22T04:56:20;101412.69;;;6.95;100.00
42633;BME280;28261;53.304;-6.284;2024-03-22T04:58:22;101423.28;;;6.94;100.00
42633;BME280;28261;53.304;-6.284;2024-03-22T05:00:24;101415.44;;;6.92;100.00
42633;BME280;28261;53.304;-6.284;2024-03-22T05:02:26;101416.44;;;6.90;100.00
42633;BME280;28261;53.304;-6.284;2024-03-22T05:04:29;101422.59;;;6.89;100.00
42633;BME280;28261;53.304;-6.284;2024-03-22T05:06:30;101416.56;;;6.87;100.00
42633;BME280;28261;53.304;-6.284;2024-03-22T05:08:34;101423.66;;;6.85;100.00
42633;BME280;28261;53.304;-6.284;2024-03-22T05:10:36;101416.69;;;6.84;100.00
42633;BME280;28261;53.304;-6.284;2024-03-22T05:12:39;101425.50;;;6.83;100.00
42633;BME280;28261;53.304;-6.284;2024-03-22T05:14:40;101431.75;;;6.80;100.00
42633;BME280;28261;53.304;-6.284;2024-03-22T05:16:41;101425.75;;;6.76;100.00
42633;BME280;28261;53.304;-6.284;2024-03-22T05:18:44;101430.16;;;6.76;100.00
42633;BME280;28261;53.304;-6.284;2024-03-22T05:20:45;101431.00;;;6.76;100.00
42633;BME280;28261;53.304;-6.284;2024-03-22T05:22:48;101427.59;;;6.74;100.00
42633;BME280;28261;53.304;-6.284;2024-03-22T05:24:51;101422.44;;;6.71;100.00
42633;BME280;28261;53.304;-6.284;2024-03-22T05:26:54;101418.94;;;6.71;100.00
42633;BME280;28261;53.304;-6.284;2024-03-22T05:28:55;101433.06;;;6.70;100.00
42633;BME280;28261;53.304;-6.284;2024-03-22T05:30:58;101436.66;;;6.67;100.00
42633;BME280;28261;53.304;-6.284;2024-03-22T05:33:00;101428.84;;;6.66;100.00
42633;BME280;28261;53.304;-6.284;2024-03-22T05:35:02;101424.53;;;6.63;100.00
42633;BME280;28261;53.304;-6.284;2024-03-22T05:37:04;101422.81;;;6.62;100.00
42633;BME280;28261;53.304;-6.284;2024-03-22T05:39:07;101429.91;;;6.60;100.00
42633;BME280;28261;53.304;-6.284;2024-03-22T05:41:10;101437.88;;;6.58;100.00
42633;BME280;28261;53.304;-6.284;2024-03-22T05:43:12;101425.66;;;6.56;100.00
42633;BME280;28261;53.304;-6.284;2024-03-22T05:45:14;101429.25;;;6.55;100.00
42633;BME280;28261;53.304;-6.284;2024-03-22T05:47:16;101430.94;;;6.56;100.00
42633;BME280;28261;53.304;-6.284;2024-03-22T05:49:18;101434.44;;;6.56;100.00
42633;BME280;28261;53.304;-6.284;2024-03-22T05:51:21;101434.44;;;6.56;100.00
42633;BME280;28261;53.304;-6.284;2024-03-22T05:53:22;101442.41;;;6.55;100.00
42633;BME280;28261;53.304;-6.284;2024-03-22T05:55:25;101444.19;;;6.54;100.00
42633;BME280;28261;53.304;-6.284;2024-03-22T05:57:30;101437.19;;;6.53;100.00
42633;BME280;28261;53.304;-6.284;2024-03-22T05:59:32;101445.16;;;6.52;100.00
42633;BME280;28261;53.304;-6.284;2024-03-22T06:01:34;101444.31;;;6.51;100.00
42633;BME280;28261;53.304;-6.284;2024-03-22T06:03:36;101440.00;;;6.49;100.00
42633;BME280;28261;53.304;-6.284;2024-03-22T06:05:38;101440.00;;;6.49;100.00
42633;BME280;28261;53.304;-6.284;2024-03-22T06:07:40;101439.22;;;6.47;100.00
42633;BME280;28261;53.304;-6.284;2024-03-22T06:09:44;101440.06;;;6.47;100.00
42633;BME280;28261;53.304;-6.284;2024-03-22T06:11:50;101441.03;;;6.44;100.00
42633;BME280;28261;53.304;-6.284;2024-03-22T06:13:53;101435.78;;;6.44;100.00
42633;BME280;28261;53.304;-6.284;2024-03-22T06:15:56;101434.03;;;6.43;100.00
42633;BME280;28261;53.304;-6.284;2024-03-22T06:17:57;101434.13;;;6.42;100.00
42633;BME280;28261;53.304;-6.284;2024-03-22T06:20:00;101440.25;;;6.42;100.00
42633;BME280;28261;53.304;-6.284;2024-03-22T06:22:01;101433.31;;;6.40;100.00
42633;BME280;28261;53.304;-6.284;2024-03-22T06:24:05;101440.41;;;6.38;100.00
42633;BME280;28261;53.304;-6.284;2024-03-22T06:26:07;101447.47;;;6.37;100.00
42633;BME280;28261;53.304;-6.284;2024-03-22T06:28:08;101452.78;;;6.36;100.00
42633;BME280;28261;53.304;-6.284;2024-03-22T06:30:13;101447.59;;;6.34;100.00
42633;BME280;28261;53.304;-6.284;2024-03-22T06:32:15;101460.75;;;6.34;100.00
42633;BME280;28261;53.304;-6.284;2024-03-22T06:34:18;101452.88;;;6.33;100.00
42633;BME280;28261;53.304;-6.284;2024-03-22T06:36:19;101448.50;;;6.33;100.00
42633;BME280;28261;53.304;-6.284;2024-03-22T06:38:23;101466.03;;;6.34;100.00
42633;BME280;28261;53.304;-6.284;2024-03-22T06:40:25;101467.72;;;6.35;100.00
42633;BME280;28261;53.304;-6.284;2024-03-22T06:42:28;101464.19;;;6.36;100.00
42633;BME280;28261;53.304;-6.284;2024-03-22T06:44:29;101472.84;;;6.40;100.00
42633;BME280;28261;53.304;-6.284;2024-03-22T06:46:33;101462.34;;;6.38;100.00
42633;BME280;28261;53.304;-6.284;2024-03-22T06:48:35;101472.84;;;6.40;100.00
42633;BME280;28261;53.304;-6.284;2024-03-22T06:50:36;101472.91;;;6.38;100.00
42633;BME280;28261;53.304;-6.284;2024-03-22T06:52:39;101477.22;;;6.39;100.00
42633;BME280;28261;53.304;-6.284;2024-03-22T06:54:40;101480.72;;;6.40;100.00
42633;BME280;28261;53.304;-6.284;2024-03-22T06:56:43;101479.75;;;6.42;100.00
42633;BME280;28261;53.304;-6.284;2024-03-22T06:58:44;101476.88;;;6.49;100.00
42633;BME280;28261;53.304;-6.284;2024-03-22T07:00:47;101475.84;;;6.53;100.00
42633;BME280;28261;53.304;-6.284;2024-03-22T07:02:50;101484.31;;;6.61;100.00
42633;BME280;28261;53.304;-6.284;2024-03-22T07:04:52;101495.53;;;6.66;100.00
42633;BME280;28261;53.304;-6.284;2024-03-22T07:06:54;101494.63;;;6.67;100.00
42633;BME280;28261;53.304;-6.284;2024-03-22T07:08:56;101485.84;;;6.67;100.00
42633;BME280;28261;53.304;-6.284;2024-03-22T07:10:59;101487.63;;;6.66;100.00
42633;BME280;28261;53.304;-6.284;2024-03-22T07:13:00;101485.91;;;6.65;100.00
42633;BME280;28261;53.304;-6.284;2024-03-22T07:15:04;101491.19;;;6.65;100.00
42633;BME280;28261;53.304;-6.284;2024-03-22T07:17:06;101486.66;;;6.69;100.00
42633;BME280;28261;53.304;-6.284;2024-03-22T07:19:11;101497.91;;;6.74;100.00
42633;BME280;28261;53.304;-6.284;2024-03-22T07:21:12;101493.41;;;6.76;100.00
42633;BME280;28261;53.304;-6.284;2024-03-22T07:23:15;101497.69;;;6.78;100.00
42633;BME280;28261;53.304;-6.284;2024-03-22T07:25:16;101497.69;;;6.78;100.00
42633;BME280;28261;53.304;-6.284;2024-03-22T07:27:18;101502.84;;;6.82;100.00
42633;BME280;28261;53.304;-6.284;2024-03-22T07:29:21;101502.69;;;6.86;100.00
42633;BME280;28261;53.304;-6.284;2024-03-22T07:31:22;101499.84;;;6.91;100.00
42633;BME280;28261;53.304;-6.284;2024-03-22T07:33:25;101502.38;;;6.94;100.00
42633;BME280;28261;53.304;-6.284;2024-03-22T07:35:28;101496.19;;;6.95;100.00
42633;BME280;28261;53.304;-6.284;2024-03-22T07:37:31;101502.28;;;6.97;100.00
42633;BME280;28261;53.304;-6.284;2024-03-22T07:39:32;101495.22;;;6.98;100.00
42633;BME280;28261;53.304;-6.284;2024-03-22T07:41:35;101495.16;;;6.99;100.00
42633;BME280;28261;53.304;-6.284;2024-03-22T07:43:36;101496.88;;;7.00;100.00
42633;BME280;28261;53.304;-6.284;2024-03-22T07:45:39;101485.34;;;7.03;100.00
42633;BME280;28261;53.304;-6.284;2024-03-22T07:47:41;101490.56;;;7.04;100.00
42633;BME280;28261;53.304;-6.284;2024-03-22T07:49:44;101500.91;;;7.09;100.00
42633;BME280;28261;53.304;-6.284;2024-03-22T07:51:47;101501.59;;;7.14;100.00
42633;BME280;28261;53.304;-6.284;2024-03-22T07:53:50;101501.53;;;7.16;100.00
42633;BME280;28261;53.304;-6.284;2024-03-22T07:55:53;101497.97;;;7.17;100.00
42633;BME280;28261;53.304;-6.284;2024-03-22T07:57:55;101499.69;;;7.18;100.00
42633;BME280;28261;53.304;-6.284;2024-03-22T07:59:58;101503.19;;;7.18;100.00
42633;BME280;28261;53.304;-6.284;2024-03-22T08:02:02;101500.47;;;7.20;100.00
42633;BME280;28261;53.304;-6.284;2024-03-22T08:04:04;101497.84;;;7.20;100.00
42633;BME280;28261;53.304;-6.284;2024-03-22T08:06:06;101513.66;;;7.20;100.00
42633;BME280;28261;53.304;-6.284;2024-03-22T08:08:10;101505.75;;;7.20;100.00
42633;BME280;28261;53.304;-6.284;2024-03-22T08:10:11;101505.63;;;7.23;100.00
42633;BME280;28261;53.304;-6.284;2024-03-22T08:12:20;101509.97;;;7.24;100.00
42633;BME280;28261;53.304;-6.284;2024-03-22T08:14:22;101511.56;;;7.28;100.00
42633;BME280;28261;53.304;-6.284;2024-03-22T08:16:24;101521.88;;;7.34;100.00
42633;BME280;28261;53.304;-6.284;2024-03-22T08:18:26;101518.91;;;7.42;100.00
42633;BME280;28261;53.304;-6.284;2024-03-22T08:20:28;101525.00;;;7.44;100.00
42633;BME280;28261;53.304;-6.284;2024-03-22T08:22:31;101524.78;;;7.49;100.00
42633;BME280;28261;53.304;-6.284;2024-03-22T08:24:35;101513.19;;;7.53;99.18
42633;BME280;28261;53.304;-6.284;2024-03-22T08:26:36;101516.50;;;7.58;99.18
42633;BME280;28261;53.304;-6.284;2024-03-22T08:28:39;101518.03;;;7.63;98.63
42633;BME280;28261;53.304;-6.284;2024-03-22T08:30:40;101523.91;;;7.70;98.13
42633;BME280;28261;53.304;-6.284;2024-03-22T08:32:43;101515.78;;;7.75;98.36
42633;BME280;28261;53.304;-6.284;2024-03-22T08:34:45;101514.47;;;7.85;98.19
42633;BME280;28261;53.304;-6.284;2024-03-22T08:36:48;101523.59;;;7.99;97.32
42633;BME280;28261;53.304;-6.284;2024-03-22T08:38:49;101518.75;;;8.08;95.92
42633;BME280;28261;53.304;-6.284;2024-03-22T08:40:53;101521.94;;;8.17;96.13
42633;BME280;28261;53.304;-6.284;2024-03-22T08:42:55;101521.72;;;8.21;94.29
42633;BME280;28261;53.304;-6.284;2024-03-22T08:44:58;101525.09;;;8.25;93.95
42633;BME280;28261;53.304;-6.284;2024-03-22T08:47:00;101522.38;;;8.26;93.04
42633;BME280;28261;53.304;-6.284;2024-03-22T08:49:02;101511.53;;;8.33;93.12
42633;BME280;28261;53.304;-6.284;2024-03-22T08:51:04;101517.59;;;8.35;91.05
42633;BME280;28261;53.304;-6.284;2024-03-22T08:53:06;101510.47;;;8.37;90.88
42633;BME280;28261;53.304;-6.284;2024-03-22T08:55:08;101514.69;;;8.41;90.81
42633;BME280;28261;53.304;-6.284;2024-03-22T08:57:13;101514.50;;;8.45;90.48
42633;BME280;28261;53.304;-6.284;2024-03-22T08:59:16;101509.66;;;8.55;89.97
42633;BME280;28261;53.304;-6.284;2024-03-22T09:01:17;101497.81;;;8.64;89.12
42633;BME280;28261;53.304;-6.284;2024-03-22T09:03:20;101500.88;;;8.74;88.02
42633;BME280;28261;53.304;-6.284;2024-03-22T09:05:23;101493.44;;;8.82;87.92
42633;BME280;28261;53.304;-6.284;2024-03-22T09:07:26;101495.59;;;8.93;86.72
42633;BME280;28261;53.304;-6.284;2024-03-22T09:09:27;101503.84;;;9.04;86.72
42633;BME280;28261;53.304;-6.284;2024-03-22T09:11:30;101495.41;;;9.15;84.80
42633;BME280;28261;53.304;-6.284;2024-03-22T09:13:34;101495.56;;;9.12;83.42
42633;BME280;28261;53.304;-6.284;2024-03-22T09:15:37;101504.19;;;9.15;82.96
42633;BME280;28261;53.304;-6.284;2024-03-22T09:17:38;101498.03;;;9.15;80.17
42633;BME280;28261;53.304;-6.284;2024-03-22T09:19:41;101499.03;;;9.12;79.92
42633;BME280;28261;53.304;-6.284;2024-03-22T09:21:43;101497.41;;;9.10;78.24
42633;BME280;28261;53.304;-6.284;2024-03-22T09:23:45;101497.56;;;9.07;78.78
42633;BME280;28261;53.304;-6.284;2024-03-22T09:25:47;101498.19;;;9.12;78.16
42633;BME280;28261;53.304;-6.284;2024-03-22T09:27:49;101510.34;;;9.16;77.35
42633;BME280;28261;53.304;-6.284;2024-03-22T09:29:52;101509.63;;;9.12;76.30
42633;BME280;28261;53.304;-6.284;2024-03-22T09:31:55;101502.50;;;9.14;76.51
42633;BME280;28261;53.304;-6.284;2024-03-22T09:33:56;101504.75;;;9.22;76.15
42633;BME280;28261;53.304;-6.284;2024-03-22T09:35:59;101499.09;;;9.30;74.98
42633;BME280;28261;53.304;-6.284;2024-03-22T09:38:00;101503.28;;;9.34;73.60
42633;BME280;28261;53.304;-6.284;2024-03-22T09:40:04;101511.22;;;9.34;71.91
42633;BME280;28261;53.304;-6.284;2024-03-22T09:42:10;101509.34;;;9.36;72.50
42633;BME280;28261;53.304;-6.284;2024-03-22T09:44:18;101509.63;;;9.49;72.58
42633;BME280;28261;53.304;-6.284;2024-03-22T09:46:21;101516.84;;;9.63;71.78
42633;BME280;28261;53.304;-6.284;2024-03-22T09:48:24;101505.19;;;9.67;69.36
42633;BME280;28261;53.304;-6.284;2024-03-22T09:50:26;101502.38;;;9.70;68.03
42633;BME280;28261;53.304;-6.284;2024-03-22T09:52:31;101496.78;;;9.76;67.79
42633;BME280;28261;53.304;-6.284;2024-03-22T09:54:33;101501.72;;;9.82;66.87
42633;BME280;28261;53.304;-6.284;2024-03-22T09:56:37;101495.44;;;9.85;64.29
42633;BME280;28261;53.304;-6.284;2024-03-22T09:58:40;101497.22;;;9.85;64.20
42633;BME280;28261;53.304;-6.284;2024-03-22T10:00:43;101494.03;;;9.95;64.61
42633;BME280;28261;53.304;-6.284;2024-03-22T10:02:46;101485.44;;;10.08;63.67
42633;BME280;28261;53.304;-6.284;2024-03-22T10:04:50;101485.97;;;10.14;62.33
42633;BME280;28261;53.304;-6.284;2024-03-22T10:06:52;101494.59;;;10.18;62.41
42633;BME280;28261;53.304;-6.284;2024-03-22T10:08:58;101504.47;;;10.32;62.38
42633;BME280;28261;53.304;-6.284;2024-03-22T10:11:01;101490.84;;;10.40;57.97
42633;BME280;28261;53.304;-6.284;2024-03-22T10:13:05;101505.09;;;10.37;56.94
42633;BME280;28261;53.304;-6.284;2024-03-22T10:15:07;101495.75;;;10.30;55.90
42633;BME280;28261;53.304;-6.284;2024-03-22T10:17:10;101485.50;;;10.24;55.97
42633;BME280;28261;53.304;-6.284;2024-03-22T10:19:13;101476.25;;;10.31;56.20
42633;BME280;28261;53.304;-6.284;2024-03-22T10:21:17;101484.69;;;10.39;55.80
42633;BME280;28261;53.304;-6.284;2024-03-22T10:23:20;101490.84;;;10.40;54.39
42633;BME280;28261;53.304;-6.284;2024-03-22T10:25:23;101490.91;;;10.38;54.73
42633;BME280;28261;53.304;-6.284;2024-03-22T10:27:26;101480.94;;;10.43;54.91
42633;BME280;28261;53.304;-6.284;2024-03-22T10:29:30;101485.88;;;10.49;53.82
42633;BME280;28261;53.304;-6.284;2024-03-22T10:31:32;101490.44;;;10.47;53.72